sensor_id;sensor_type;location;lat;lon;timestamp;pressure;altitude;pressure_sealevel;temperature;humidity
59487;BME280;45298;54.918;73.504;2023-02-15T00:01:33;101557.56;;;-24.98;68.30
59487;BME280;45298;54.918;73.504;2023-02-15T00:04:03;101551.19;;;-25.03;68.47
59487;BME280;45298;54.918;73.504;2023-02-15T00:06:32;101607.88;;;-24.72;68.93
59487;BME280;45298;54.918;73.504;2023-02-15T00:09:02;101613.16;;;-24.69;68.94
59487;BME280;45298;54.918;73.504;2023-02-15T00:11:31;101607.53;;;-24.75;68.91
59487;BME280;45298;54.918;73.504;2023-02-15T00:14:11;101558.22;;;-25.08;68.95
59487;BME280;45298;54.918;73.504;2023-02-15T00:16:41;101616.44;;;-24.70;68.82
59487;BME280;45298;54.918;73.504;2023-02-15T00:19:12;101584.78;;;-24.85;68.87
59487;BME280;45298;54.918;73.504;2023-02-15T00:21:41;101580.03;;;-24.91;69.12
59487;BME280;45298;54.918;73.504;2023-02-15T00:24:15;101583.16;;;-24.85;69.33
59487;BME280;45298;54.918;73.504;2023-02-15T00:26:45;101618.78;;;-24.71;69.06
59487;BME280;45298;54.918;73.504;2023-02-15T00:29:16;101571.38;;;-25.02;68.83
59487;BME280;45298;54.918;73.504;2023-02-15T00:31:46;101563.31;;;-25.15;68.75
59487;BME280;45298;54.918;73.504;2023-02-15T00:34:17;101577.59;;;-25.14;68.61
59487;BME280;45298;54.918;73.504;2023-02-15T00:36:46;101465.25;;;-25.84;68.56
59487;BME280;45298;54.918;73.504;2023-02-15T00:39:16;101618.88;;;-24.95;68.60
59487;BME280;45298;54.918;73.504;2023-02-15T00:41:46;101616.94;;;-24.97;69.09
59487;BME280;45298;54.918;73.504;2023-02-15T00:44:15;101544.75;;;-25.33;68.57
59487;BME280;45298;54.918;73.504;2023-02-15T00:46:44;101459.53;;;-25.83;68.95
59487;BME280;45298;54.918;73.504;2023-02-15T00:49:13;101582.47;;;-25.16;68.89
59487;BME280;45298;54.918;73.504;2023-02-15T00:51:42;101571.06;;;-25.21;68.36
59487;BME280;45298;54.918;73.504;2023-02-15T00:54:10;101556.13;;;-25.28;68.75
59487;BME280;45298;54.918;73.504;2023-02-15T00:56:39;101599.97;;;-25.00;68.59
59487;BME280;45298;54.918;73.504;2023-02-15T00:59:09;101459.72;;;-25.81;68.50
59487;BME280;45298;54.918;73.504;2023-02-15T01:01:37;101597.16;;;-25.03;68.29
59487;BME280;45298;54.918;73.504;2023-02-15T01:04:06;101545.16;;;-25.37;69.10
59487;BME280;45298;54.918;73.504;2023-02-15T01:06:35;101584.06;;;-25.16;68.50
59487;BME280;45298;54.918;73.504;2023-02-15T01:09:04;101615.31;;;-24.97;68.56
59487;BME280;45298;54.918;73.504;2023-02-15T01:11:33;101610.88;;;-24.99;68.06
59487;BME280;45298;54.918;73.504;2023-02-15T01:14:01;101581.56;;;-25.16;68.47
59487;BME280;45298;54.918;73.504;2023-02-15T01:16:31;101613.97;;;-25.02;68.21
59487;BME280;45298;54.918;73.504;2023-02-15T01:18:59;101584.78;;;-25.17;68.78
59487;BME280;45298;54.918;73.504;2023-02-15T01:21:31;101559.34;;;-25.29;68.46
59487;BME280;45298;54.918;73.504;2023-02-15T01:24:02;101553.38;;;-25.38;68.38
59487;BME280;45298;54.918;73.504;2023-02-15T01:26:31;101599.41;;;-25.13;68.54
59487;BME280;45298;54.918;73.504;2023-02-15T01:28:59;101590.63;;;-25.26;68.42
59487;BME280;45298;54.918;73.504;2023-02-15T01:31:28;101560.75;;;-25.40;68.54
59487;BME280;45298;54.918;73.504;2023-02-15T01:33:58;101594.72;;;-25.26;69.28
59487;BME280;45298;54.918;73.504;2023-02-15T01:36:26;101570.75;;;-25.40;68.99
59487;BME280;45298;54.918;73.504;2023-02-15T01:38:55;101605.25;;;-25.21;68.86
59487;BME280;45298;54.918;73.504;2023-02-15T01:41:24;101453.88;;;-26.05;69.08
59487;BME280;45298;54.918;73.504;2023-02-15T01:44:01;101622.91;;;-25.20;68.98
59487;BME280;45298;54.918;73.504;2023-02-15T01:46:38;101589.63;;;-25.35;69.08
59487;BME280;45298;54.918;73.504;2023-02-15T01:49:18;101550.91;;;-25.54;69.03
59487;BME280;45298;54.918;73.504;2023-02-15T01:51:49;101611.19;;;-25.28;68.78
59487;BME280;45298;54.918;73.504;2023-02-15T01:54:31;101551.63;;;-25.56;68.71
59487;BME280;45298;54.918;73.504;2023-02-15T01:57:03;101590.78;;;-25.40;68.81
59487;BME280;45298;54.918;73.504;2023-02-15T01:59:35;101616.44;;;-25.34;68.49
59487;BME280;45298;54.918;73.504;2023-02-15T02:02:05;101593.19;;;-25.49;68.85
59487;BME280;45298;54.918;73.504;2023-02-15T02:04:42;101613.41;;;-25.47;68.56
59487;BME280;45298;54.918;73.504;2023-02-15T02:07:14;101494.69;;;-26.13;68.84
59487;BME280;45298;54.918;73.504;2023-02-15T02:09:45;101617.28;;;-25.42;68.57
59487;BME280;45298;54.918;73.504;2023-02-15T02:12:17;101621.13;;;-25.37;69.32
59487;BME280;45298;54.918;73.504;2023-02-15T02:14:49;101616.06;;;-25.46;68.84
59487;BME280;45298;54.918;73.504;2023-02-15T02:17:59;101602.81;;;-25.61;69.03
59487;BME280;45298;54.918;73.504;2023-02-15T02:42:34;101629.38;;;-25.54;68.67
59487;BME280;45298;54.918;73.504;2023-02-15T02:47:43;101639.22;;;-25.56;68.54
59487;BME280;45298;54.918;73.504;2023-02-15T02:50:22;101630.66;;;-25.58;68.84
59487;BME280;45298;54.918;73.504;2023-02-15T02:52:54;101644.88;;;-25.49;68.61
59487;BME280;45298;54.918;73.504;2023-02-15T02:58:20;101637.13;;;-25.44;68.68
59487;BME280;45298;54.918;73.504;2023-02-15T03:01:33;101611.69;;;-25.56;68.99
59487;BME280;45298;54.918;73.504;2023-02-15T03:04:22;101623.41;;;-25.47;68.66
59487;BME280;45298;54.918;73.504;2023-02-15T03:07:01;101600.41;;;-25.52;68.95
59487;BME280;45298;54.918;73.504;2023-02-15T03:09:35;101580.06;;;-25.55;68.91
59487;BME280;45298;54.918;73.504;2023-02-15T03:12:24;101598.00;;;-25.43;68.94
59487;BME280;45298;54.918;73.504;2023-02-15T03:14:59;101594.63;;;-25.35;68.63
59487;BME280;45298;54.918;73.504;2023-02-15T03:17:36;101626.56;;;-25.09;68.40
59487;BME280;45298;54.918;73.504;2023-02-15T03:20:18;101632.28;;;-25.10;69.14
59487;BME280;45298;54.918;73.504;2023-02-15T03:22:53;101637.13;;;-24.96;69.03
59487;BME280;45298;54.918;73.504;2023-02-15T03:25:27;101604.03;;;-25.09;68.73
59487;BME280;45298;54.918;73.504;2023-02-15T03:28:07;101621.31;;;-24.87;68.50
59487;BME280;45298;54.918;73.504;2023-02-15T03:30:39;101642.06;;;-24.72;68.59
59487;BME280;45298;54.918;73.504;2023-02-15T03:33:09;101622.75;;;-24.73;69.12
59487;BME280;45298;54.918;73.504;2023-02-15T03:35:49;101615.38;;;-24.72;69.03
59487;BME280;45298;54.918;73.504;2023-02-15T03:38:34;101585.59;;;-24.69;69.00
59487;BME280;45298;54.918;73.504;2023-02-15T03:41:06;101608.59;;;-24.48;68.99
59487;BME280;45298;54.918;73.504;2023-02-15T03:44:02;101645.50;;;-24.22;69.28
59487;BME280;45298;54.918;73.504;2023-02-15T03:46:42;101606.97;;;-23.55;69.31
59487;BME280;45298;54.918;73.504;2023-02-15T03:52:28;101606.66;;;-22.18;66.82
59487;BME280;45298;54.918;73.504;2023-02-15T03:54:58;101593.06;;;-22.29;66.54
59487;BME280;45298;54.918;73.504;2023-02-15T03:57:28;101622.34;;;-22.38;66.90
59487;BME280;45298;54.918;73.504;2023-02-15T04:00:20;101617.28;;;-22.21;67.12
59487;BME280;45298;54.918;73.504;2023-02-15T04:05:44;101624.78;;;-22.57;67.85
59487;BME280;45298;54.918;73.504;2023-02-15T04:08:13;101585.16;;;-22.77;68.29
59487;BME280;45298;54.918;73.504;2023-02-15T04:10:42;101632.78;;;-22.53;68.48
59487;BME280;45298;54.918;73.504;2023-02-15T04:13:32;101630.97;;;-22.45;68.37
59487;BME280;45298;54.918;73.504;2023-02-15T04:16:00;101597.28;;;-22.64;68.20
59487;BME280;45298;54.918;73.504;2023-02-15T04:18:38;101624.78;;;-22.57;68.05
59487;BME280;45298;54.918;73.504;2023-02-15T04:21:28;101637.94;;;-22.60;68.32
59487;BME280;45298;54.918;73.504;2023-02-15T04:24:16;101647.84;;;-22.53;68.41
59487;BME280;45298;54.918;73.504;2023-02-15T04:27:04;101612.34;;;-22.64;68.98
59487;BME280;45298;54.918;73.504;2023-02-15T04:29:34;101623.31;;;-22.46;69.19
59487;BME280;45298;54.918;73.504;2023-02-15T04:32:02;101612.00;;;-22.41;69.22
59487;BME280;45298;54.918;73.504;2023-02-15T04:34:32;101631.56;;;-22.39;69.25
59487;BME280;45298;54.918;73.504;2023-02-15T04:37:00;101515.69;;;-22.86;68.82
59487;BME280;45298;54.918;73.504;2023-02-15T04:39:29;101654.25;;;-22.02;69.22
59487;BME280;45298;54.918;73.504;2023-02-15T04:42:01;101609.59;;;-22.13;68.75
59487;BME280;45298;54.918;73.504;2023-02-15T04:44:31;101531.00;;;-22.56;69.44
59487;BME280;45298;54.918;73.504;2023-02-15T04:47:00;101599.53;;;-22.13;68.80
59487;BME280;45298;54.918;73.504;2023-02-15T04:49:28;101521.97;;;-22.63;69.36
59487;BME280;45298;54.918;73.504;2023-02-15T04:51:57;101592.75;;;-22.23;69.85
59487;BME280;45298;54.918;73.504;2023-02-15T04:54:28;101641.53;;;-21.95;70.30
59487;BME280;45298;54.918;73.504;2023-02-15T04:56:57;101592.28;;;-22.10;70.03
59487;BME280;45298;54.918;73.504;2023-02-15T04:59:26;101648.16;;;-21.78;70.07
59487;BME280;45298;54.918;73.504;2023-02-15T05:01:54;101637.19;;;-21.78;69.95
59487;BME280;45298;54.918;73.504;2023-02-15T05:04:23;101594.16;;;-21.99;69.87
59487;BME280;45298;54.918;73.504;2023-02-15T05:06:52;101608.91;;;-21.84;69.56
59487;BME280;45298;54.918;73.504;2023-02-15T05:09:21;101623.69;;;-21.70;69.57
59487;BME280;45298;54.918;73.504;2023-02-15T05:11:49;101660.91;;;-21.48;69.56
59487;BME280;45298;54.918;73.504;2023-02-15T05:14:21;101579.25;;;-21.78;70.53
59487;BME280;45298;54.918;73.504;2023-02-15T05:16:49;101599.31;;;-21.61;70.17
59487;BME280;45298;54.918;73.504;2023-02-15T05:19:18;101610.22;;;-21.51;70.04
59487;BME280;45298;54.918;73.504;2023-02-15T05:21:47;101636.38;;;-21.32;69.60
59487;BME280;45298;54.918;73.504;2023-02-15T05:24:15;101631.28;;;-21.23;69.67
59487;BME280;45298;54.918;73.504;2023-02-15T05:27:02;101611.81;;;-21.15;70.36
59487;BME280;45298;54.918;73.504;2023-02-15T05:29:49;101571.19;;;-21.18;69.86
59487;BME280;45298;54.918;73.504;2023-02-15T05:32:18;101622.38;;;-20.81;69.58
59487;BME280;45298;54.918;73.504;2023-02-15T05:34:50;101606.34;;;-20.62;69.32
59487;BME280;45298;54.918;73.504;2023-02-15T05:37:18;101632.16;;;-20.46;69.25
59487;BME280;45298;54.918;73.504;2023-02-15T05:39:48;101568.84;;;-20.68;69.15
59487;BME280;45298;54.918;73.504;2023-02-15T05:42:16;101591.03;;;-20.45;69.16
59487;BME280;45298;54.918;73.504;2023-02-15T05:44:45;101605.78;;;-20.30;69.31
59487;BME280;45298;54.918;73.504;2023-02-15T05:47:18;101619.00;;;-20.03;68.96
59487;BME280;45298;54.918;73.504;2023-02-15T05:49:47;101618.91;;;-19.95;69.17
59487;BME280;45298;54.918;73.504;2023-02-15T05:52:18;101622.34;;;-19.73;69.28
59487;BME280;45298;54.918;73.504;2023-02-15T05:54:47;101592.28;;;-19.70;68.89
59487;BME280;45298;54.918;73.504;2023-02-15T05:57:16;101591.28;;;-19.62;68.84
59487;BME280;45298;54.918;73.504;2023-02-15T05:59:44;101491.22;;;-20.12;69.03
59487;BME280;45298;54.918;73.504;2023-02-15T06:02:13;101627.22;;;-19.25;69.47
59487;BME280;45298;54.918;73.504;2023-02-15T06:04:42;101608.25;;;-19.40;68.60
59487;BME280;45298;54.918;73.504;2023-02-15T06:07:11;101623.94;;;-19.34;68.82
59487;BME280;45298;54.918;73.504;2023-02-15T06:09:42;101617.72;;;-19.48;68.82
59487;BME280;45298;54.918;73.504;2023-02-15T06:12:11;101568.56;;;-19.72;69.04
59487;BME280;45298;54.918;73.504;2023-02-15T06:14:39;101604.59;;;-19.44;68.95
59487;BME280;45298;54.918;73.504;2023-02-15T06:17:08;101596.63;;;-19.38;68.91
59487;BME280;45298;54.918;73.504;2023-02-15T06:19:37;101595.38;;;-19.33;68.72
59487;BME280;45298;54.918;73.504;2023-02-15T06:22:05;101644.41;;;-18.90;68.98
59487;BME280;45298;54.918;73.504;2023-02-15T06:24:34;101510.19;;;-19.44;68.95
59487;BME280;45298;54.918;73.504;2023-02-15T06:27:03;101593.81;;;-18.90;68.66
59487;BME280;45298;54.918;73.504;2023-02-15T06:29:32;101598.88;;;-18.79;68.57
59487;BME280;45298;54.918;73.504;2023-02-15T06:32:01;101612.88;;;-18.52;68.18
59487;BME280;45298;54.918;73.504;2023-02-15T06:34:30;101617.75;;;-18.33;68.25
59487;BME280;45298;54.918;73.504;2023-02-15T06:36:58;101609.69;;;-18.39;68.05
59487;BME280;45298;54.918;73.504;2023-02-15T06:39:27;101598.78;;;-18.38;68.30
59487;BME280;45298;54.918;73.504;2023-02-15T06:41:57;101600.25;;;-18.30;68.49
59487;BME280;45298;54.918;73.504;2023-02-15T06:44:26;101614.94;;;-18.26;68.58
59487;BME280;45298;54.918;73.504;2023-02-15T06:46:54;101622.63;;;-18.14;68.36
59487;BME280;45298;54.918;73.504;2023-02-15T06:49:23;101605.09;;;-18.00;68.78
59487;BME280;45298;54.918;73.504;2023-02-15T06:51:57;101629.50;;;-17.68;67.95
59487;BME280;45298;54.918;73.504;2023-02-15T06:54:26;101618.81;;;-17.42;68.06
59487;BME280;45298;54.918;73.504;2023-02-15T06:56:54;101602.94;;;-17.17;67.51
59487;BME280;45298;54.918;73.504;2023-02-15T06:59:28;101630.03;;;-16.70;66.94
59487;BME280;45298;54.918;73.504;2023-02-15T07:01:57;101638.69;;;-16.20;66.37
59487;BME280;45298;54.918;73.504;2023-02-15T07:04:26;101600.56;;;-16.32;66.06
59487;BME280;45298;54.918;73.504;2023-02-15T07:06:59;101613.94;;;-16.35;66.10
59487;BME280;45298;54.918;73.504;2023-02-15T07:09:28;101615.25;;;-16.16;66.16
59487;BME280;45298;54.918;73.504;2023-02-15T07:11:57;101596.91;;;-16.00;66.54
59487;BME280;45298;54.918;73.504;2023-02-15T07:14:47;101614.69;;;-15.63;65.32
59487;BME280;45298;54.918;73.504;2023-02-15T07:17:16;101604.41;;;-15.39;65.57
59487;BME280;45298;54.918;73.504;2023-02-15T07:20:07;101635.78;;;-15.01;64.52
59487;BME280;45298;54.918;73.504;2023-02-15T07:22:40;101602.53;;;-15.16;64.62
59487;BME280;45298;54.918;73.504;2023-02-15T07:25:10;101604.47;;;-15.51;65.07
59487;BME280;45298;54.918;73.504;2023-02-15T07:27:40;101620.88;;;-15.34;64.75
59487;BME280;45298;54.918;73.504;2023-02-15T07:30:11;101584.13;;;-15.26;65.24
59487;BME280;45298;54.918;73.504;2023-02-15T07:32:41;101572.91;;;-15.16;63.89
59487;BME280;45298;54.918;73.504;2023-02-15T07:35:33;101614.13;;;-15.08;64.85
59487;BME280;45298;54.918;73.504;2023-02-15T07:38:01;101600.94;;;-15.02;65.03
59487;BME280;45298;54.918;73.504;2023-02-15T07:40:30;101598.50;;;-15.01;64.18
59487;BME280;45298;54.918;73.504;2023-02-15T07:42:59;101616.66;;;-15.22;63.87
59487;BME280;45298;54.918;73.504;2023-02-15T07:45:28;101596.84;;;-15.51;63.97
59487;BME280;45298;54.918;73.504;2023-02-15T07:47:59;101576.72;;;-15.85;63.92
59487;BME280;45298;54.918;73.504;2023-02-15T07:50:29;101581.22;;;-16.06;64.84
59487;BME280;45298;54.918;73.504;2023-02-15T07:53:00;101594.13;;;-15.66;64.32
59487;BME280;45298;54.918;73.504;2023-02-15T07:55:30;101583.31;;;-15.75;64.47
59487;BME280;45298;54.918;73.504;2023-02-15T07:57:58;101619.53;;;-15.54;63.84
59487;BME280;45298;54.918;73.504;2023-02-15T08:00:27;101550.25;;;-16.01;64.15
59487;BME280;45298;54.918;73.504;2023-02-15T08:02:57;101620.63;;;-15.51;64.25
59487;BME280;45298;54.918;73.504;2023-02-15T08:05:43;101571.84;;;-15.82;64.37
59487;BME280;45298;54.918;73.504;2023-02-15T08:08:12;101631.31;;;-15.43;64.68
59487;BME280;45298;54.918;73.504;2023-02-15T08:11:17;101641.16;;;-15.36;63.45
59487;BME280;45298;54.918;73.504;2023-02-15T08:14:10;101633.81;;;-15.31;64.16
59487;BME280;45298;54.918;73.504;2023-02-15T08:16:51;101619.69;;;-15.39;63.83
59487;BME280;45298;54.918;73.504;2023-02-15T08:19:26;101629.16;;;-15.25;64.65
59487;BME280;45298;54.918;73.504;2023-02-15T08:22:03;101578.19;;;-15.63;63.74
59487;BME280;45298;54.918;73.504;2023-02-15T08:24:36;101614.59;;;-15.39;64.33
59487;BME280;45298;54.918;73.504;2023-02-15T08:27:07;101619.06;;;-15.48;63.47
59487;BME280;45298;54.918;73.504;2023-02-15T08:29:38;101599.00;;;-15.69;63.42
59487;BME280;45298;54.918;73.504;2023-02-15T08:32:09;101593.59;;;-15.74;63.45
59487;BME280;45298;54.918;73.504;2023-02-15T08:34:40;101590.69;;;-15.92;63.98
59487;BME280;45298;54.918;73.504;2023-02-15T08:37:10;101602.34;;;-15.82;64.51
59487;BME280;45298;54.918;73.504;2023-02-15T08:39:38;101601.69;;;-15.80;63.45
59487;BME280;45298;54.918;73.504;2023-02-15T08:42:07;101612.94;;;-15.76;63.98
59487;BME280;45298;54.918;73.504;2023-02-15T08:44:37;101620.66;;;-15.62;63.46
59487;BME280;45298;54.918;73.504;2023-02-15T08:47:06;101555.25;;;-16.02;64.61
59487;BME280;45298;54.918;73.504;2023-02-15T08:49:35;101620.31;;;-15.55;63.90
59487;BME280;45298;54.918;73.504;2023-02-15T08:52:04;101590.59;;;-15.68;64.25
59487;BME280;45298;54.918;73.504;2023-02-15T08:54:33;101600.53;;;-15.71;64.04
59487;BME280;45298;54.918;73.504;2023-02-15T08:57:02;101577.19;;;-15.91;63.91
59487;BME280;45298;54.918;73.504;2023-02-15T08:59:33;101588.91;;;-15.93;64.74
59487;BME280;45298;54.918;73.504;2023-02-15T09:02:02;101598.53;;;-15.89;65.33
59487;BME280;45298;54.918;73.504;2023-02-15T09:04:31;101591.13;;;-15.86;64.45
59487;BME280;45298;54.918;73.504;2023-02-15T09:07:03;101574.56;;;-15.92;63.80
59487;BME280;45298;54.918;73.504;2023-02-15T09:09:34;101599.09;;;-15.93;64.44
59487;BME280;45298;54.918;73.504;2023-02-15T09:12:02;101597.94;;;-15.85;64.63
59487;BME280;45298;54.918;73.504;2023-02-15T09:14:32;101561.78;;;-16.18;64.85
59487;BME280;45298;54.918;73.504;2023-02-15T09:17:02;101546.09;;;-16.24;65.14
59487;BME280;45298;54.918;73.504;2023-02-15T09:19:32;101569.97;;;-16.22;64.96
59487;BME280;45298;54.918;73.504;2023-02-15T09:22:00;101569.41;;;-16.18;65.27
59487;BME280;45298;54.918;73.504;2023-02-15T09:24:32;101559.13;;;-16.31;65.55
59487;BME280;45298;54.918;73.504;2023-02-15T09:27:04;101475.50;;;-16.77;64.65
59487;BME280;45298;54.918;73.504;2023-02-15T09:29:33;101590.28;;;-16.10;65.15
59487;BME280;45298;54.918;73.504;2023-02-15T09:32:02;101559.44;;;-16.15;65.76
59487;BME280;45298;54.918;73.504;2023-02-15T09:34:32;101541.50;;;-16.30;64.86
59487;BME280;45298;54.918;73.504;2023-02-15T09:37:01;101571.50;;;-16.24;65.79
59487;BME280;45298;54.918;73.504;2023-02-15T09:39:30;101557.03;;;-16.25;65.06
59487;BME280;45298;54.918;73.504;2023-02-15T09:42:27;101603.41;;;-16.04;65.55
59487;BME280;45298;54.918;73.504;2023-02-15T09:51:31;101601.09;;;-16.01;64.55
59487;BME280;45298;54.918;73.504;2023-02-15T10:00:07;101617.25;;;-16.00;65.06
59487;BME280;45298;54.918;73.504;2023-02-15T10:03:06;101615.09;;;-15.94;65.34
59487;BME280;45298;54.918;73.504;2023-02-15T10:06:23;101616.56;;;-15.98;65.79
59487;BME280;45298;54.918;73.504;2023-02-15T10:14:57;101630.81;;;-16.00;66.20
59487;BME280;45298;54.918;73.504;2023-02-15T10:24:23;101517.66;;;-16.79;65.69
59487;BME280;45298;54.918;73.504;2023-02-15T10:27:11;101610.19;;;-16.28;65.64
59487;BME280;45298;54.918;73.504;2023-02-15T10:32:40;101583.91;;;-16.41;66.64
59487;BME280;45298;54.918;73.504;2023-02-15T10:35:20;101539.50;;;-16.69;66.28
59487;BME280;45298;54.918;73.504;2023-02-15T10:40:57;101505.34;;;-16.98;66.73
59487;BME280;45298;54.918;73.504;2023-02-15T10:55:11;101637.88;;;-16.55;67.57
59487;BME280;45298;54.918;73.504;2023-02-15T10:57:57;101509.84;;;-17.18;67.56
59487;BME280;45298;54.918;73.504;2023-02-15T11:04:29;101624.53;;;-16.52;68.16
59487;BME280;45298;54.918;73.504;2023-02-15T11:06:25;101593.50;;;-16.60;67.95
59487;BME280;45298;54.918;73.504;2023-02-15T11:09:02;101607.41;;;-16.55;68.44
59487;BME280;45298;54.918;73.504;2023-02-15T11:11:35;101609.38;;;-16.75;68.62
59487;BME280;45298;54.918;73.504;2023-02-15T11:14:17;101623.41;;;-16.68;67.94
59487;BME280;45298;54.918;73.504;2023-02-15T11:16:53;101564.78;;;-17.07;69.05
59487;BME280;45298;54.918;73.504;2023-02-15T11:19:35;101620.09;;;-16.79;68.51
59487;BME280;45298;54.918;73.504;2023-02-15T11:22:06;101585.41;;;-17.02;69.17
59487;BME280;45298;54.918;73.504;2023-02-15T11:24:40;101575.69;;;-17.08;68.57
59487;BME280;45298;54.918;73.504;2023-02-15T11:32:33;101623.38;;;-16.92;69.36
59487;BME280;45298;54.918;73.504;2023-02-15T11:35:22;101588.25;;;-17.21;68.81
59487;BME280;45298;54.918;73.504;2023-02-15T11:38:16;101609.22;;;-17.12;68.75
59487;BME280;45298;54.918;73.504;2023-02-15T11:40:54;101623.75;;;-17.21;68.84
59487;BME280;45298;54.918;73.504;2023-02-15T11:45:59;101611.25;;;-17.52;68.59
59487;BME280;45298;54.918;73.504;2023-02-15T11:48:31;101599.31;;;-17.65;68.87
59487;BME280;45298;54.918;73.504;2023-02-15T11:51:02;101611.38;;;-17.73;68.12
59487;BME280;45298;54.918;73.504;2023-02-15T11:53:37;101598.19;;;-17.91;68.74
59487;BME280;45298;54.918;73.504;2023-02-15T11:56:15;101619.72;;;-17.86;68.78
59487;BME280;45298;54.918;73.504;2023-02-15T11:58:58;101604.97;;;-18.02;69.00
59487;BME280;45298;54.918;73.504;2023-02-15T12:01:35;101652.28;;;-17.90;69.11
59487;BME280;45298;54.918;73.504;2023-02-15T12:06:38;101624.81;;;-18.18;68.88
59487;BME280;45298;54.918;73.504;2023-02-15T12:09:28;101647.72;;;-18.17;69.19
59487;BME280;45298;54.918;73.504;2023-02-15T12:12:31;101644.06;;;-18.31;69.12
59487;BME280;45298;54.918;73.504;2023-02-15T12:15:06;101623.84;;;-18.51;69.27
59487;BME280;45298;54.918;73.504;2023-02-15T12:17:40;101535.47;;;-19.13;69.54
59487;BME280;45298;54.918;73.504;2023-02-15T12:23:11;101657.56;;;-18.63;69.44
59487;BME280;45298;54.918;73.504;2023-02-15T12:25:49;101616.25;;;-18.94;69.44
59487;BME280;45298;54.918;73.504;2023-02-15T12:28:37;101637.13;;;-18.97;69.46
59487;BME280;45298;54.918;73.504;2023-02-15T12:31:23;101656.03;;;-18.92;69.31
59487;BME280;45298;54.918;73.504;2023-02-15T12:33:55;101619.41;;;-19.18;69.54
59487;BME280;45298;54.918;73.504;2023-02-15T12:36:32;101605.50;;;-19.33;70.03
59487;BME280;45298;54.918;73.504;2023-02-15T12:42:14;101648.34;;;-19.14;70.15
59487;BME280;45298;54.918;73.504;2023-02-15T12:45:02;101601.66;;;-19.49;70.27
59487;BME280;45298;54.918;73.504;2023-02-15T12:47:31;101663.66;;;-19.23;69.73
59487;BME280;45298;54.918;73.504;2023-02-15T12:50:08;101621.66;;;-19.52;69.88
59487;BME280;45298;54.918;73.504;2023-02-15T12:52:47;101668.06;;;-19.31;70.26
59487;BME280;45298;54.918;73.504;2023-02-15T12:55:23;101637.03;;;-19.49;70.04
59487;BME280;45298;54.918;73.504;2023-02-15T12:58:07;101656.50;;;-19.48;70.54
59487;BME280;45298;54.918;73.504;2023-02-15T13:00:36;101625.78;;;-19.63;70.37
59487;BME280;45298;54.918;73.504;2023-02-15T13:03:14;101550.03;;;-20.13;70.65
59487;BME280;45298;54.918;73.504;2023-02-15T13:05:46;101634.72;;;-19.66;71.03
59487;BME280;45298;54.918;73.504;2023-02-15T13:08:22;101636.59;;;-19.74;71.07
59487;BME280;45298;54.918;73.504;2023-02-15T13:13:33;101653.69;;;-19.71;71.00
59487;BME280;45298;54.918;73.504;2023-02-15T13:16:09;101651.16;;;-19.71;70.51
59487;BME280;45298;54.918;73.504;2023-02-15T13:18:43;101685.16;;;-19.57;71.16
59487;BME280;45298;54.918;73.504;2023-02-15T13:21:19;101568.28;;;-20.26;71.33
59487;BME280;45298;54.918;73.504;2023-02-15T13:23:57;101666.06;;;-19.74;71.17
59487;BME280;45298;54.918;73.504;2023-02-15T13:26:30;101684.88;;;-19.71;71.02
59487;BME280;45298;54.918;73.504;2023-02-15T13:29:15;101709.78;;;-19.65;71.51
59487;BME280;45298;54.918;73.504;2023-02-15T13:31:45;101698.75;;;-19.76;71.78
59487;BME280;45298;54.918;73.504;2023-02-15T13:34:30;101687.88;;;-19.85;71.64
59487;BME280;45298;54.918;73.504;2023-02-15T13:37:42;101693.78;;;-19.85;71.37
59487;BME280;45298;54.918;73.504;2023-02-15T13:43:28;101601.13;;;-20.45;70.99
59487;BME280;45298;54.918;73.504;2023-02-15T13:48:47;101689.31;;;-20.08;71.39
59487;BME280;45298;54.918;73.504;2023-02-15T13:51:46;101729.03;;;-19.86;71.10
59487;BME280;45298;54.918;73.504;2023-02-15T13:54:28;101728.03;;;-19.88;71.84
59487;BME280;45298;54.918;73.504;2023-02-15T14:00:24;101722.31;;;-19.96;71.36
59487;BME280;45298;54.918;73.504;2023-02-15T14:25:35;101743.34;;;-20.06;72.18
59487;BME280;45298;54.918;73.504;2023-02-15T14:28:49;101738.91;;;-20.09;72.27
59487;BME280;45298;54.918;73.504;2023-02-15T14:30:58;101722.41;;;-20.24;72.22
59487;BME280;45298;54.918;73.504;2023-02-15T14:33:47;101709.72;;;-20.34;71.99
59487;BME280;45298;54.918;73.504;2023-02-15T14:36:23;101704.41;;;-20.38;71.86
59487;BME280;45298;54.918;73.504;2023-02-15T14:42:21;101734.75;;;-20.27;72.02
59487;BME280;45298;54.918;73.504;2023-02-15T14:47:45;101644.28;;;-20.90;72.24
59487;BME280;45298;54.918;73.504;2023-02-15T14:53:37;101717.56;;;-20.50;72.79
59487;BME280;45298;54.918;73.504;2023-02-15T14:56:17;101630.91;;;-20.89;72.82
59487;BME280;45298;54.918;73.504;2023-02-15T15:01:29;101753.91;;;-20.29;72.56
59487;BME280;45298;54.918;73.504;2023-02-15T15:04:20;101718.69;;;-20.47;72.37
59487;BME280;45298;54.918;73.504;2023-02-15T15:09:37;101761.47;;;-20.29;72.48
59487;BME280;45298;54.918;73.504;2023-02-15T15:14:52;101760.31;;;-20.33;72.69
59487;BME280;45298;54.918;73.504;2023-02-15T15:22:36;101711.25;;;-20.64;72.53
59487;BME280;45298;54.918;73.504;2023-02-15T15:25:39;101725.31;;;-20.58;72.33
59487;BME280;45298;54.918;73.504;2023-02-15T15:28:05;101738.47;;;-20.52;72.80
59487;BME280;45298;54.918;73.504;2023-02-15T15:33:25;101735.75;;;-20.63;72.32
59487;BME280;45298;54.918;73.504;2023-02-15T15:37:33;101745.38;;;-20.59;72.30
59487;BME280;45298;54.918;73.504;2023-02-15T15:46:04;101781.59;;;-20.68;72.54
59487;BME280;45298;54.918;73.504;2023-02-15T15:48:39;101746.34;;;-20.95;72.29
59487;BME280;45298;54.918;73.504;2023-02-15T15:51:20;101769.91;;;-20.95;72.56